Time;durP1;ratioP1;P1;durP2;ratioP2;P2;SDS_P1;SDS_P2;PMS_P1;PMS_P2;Temp;Humidity;BMP_temperature;BMP_pressure;BME280_temperature;BME280_humidity;BME280_pressure;Samples;Min_cycle;Max_cycle;Signal;HPM_P1;HPM_P2
2023/07/25 00:00:22;;;;;;;9.40;4.18;;;16.20;96.90;;;;;;5041529;28;20025;-83
2023/07/25 00:02:48;;;;;;;4.63;3.58;;;16.20;97.00;;;;;;5041380;28;20028;-83
2023/07/25 00:05:14;;;;;;;4.38;3.70;;;16.20;97.00;;;;;;5057966;28;20039;-83
2023/07/25 00:07:39;;;;;;;4.90;3.70;;;16.20;97.00;;;;;;5057977;28;20029;-83
2023/07/25 00:10:06;;;;;;;4.63;3.58;;;16.10;96.90;;;;;;5076245;28;20106;-83
2023/07/25 00:12:31;;;;;;;4.95;3.78;;;16.10;96.90;;;;;;5076025;28;20567;-83
2023/07/25 00:14:57;;;;;;;4.85;3.97;;;16.10;96.90;;;;;;5042049;28;20036;-83
2023/07/25 00:17:22;;;;;;;4.28;3.70;;;16.10;96.90;;;;;;5058691;28;20024;-83
2023/07/25 00:19:48;;;;;;;5.03;3.47;;;16.10;96.90;;;;;;5056620;28;20008;-83
2023/07/25 00:22:14;;;;;;;4.72;3.97;;;16.10;96.90;;;;;;5099895;28;20020;-83
2023/07/25 00:24:39;;;;;;;5.72;3.88;;;16.00;97.00;;;;;;5098595;28;20032;-82
2023/07/25 00:27:05;;;;;;;5.60;3.47;;;16.00;97.00;;;;;;5063615;28;20059;-83
2023/07/25 00:29:31;;;;;;;5.05;3.58;;;16.00;97.00;;;;;;5080475;28;20040;-79
2023/07/25 00:31:56;;;;;;;4.43;3.78;;;16.00;97.00;;;;;;5042401;28;20056;-83
2023/07/25 00:34:23;;;;;;;5.93;3.65;;;16.00;97.00;;;;;;5040640;28;20104;-83
2023/07/25 00:36:51;;;;;;;3.83;3.35;;;16.00;97.00;;;;;;5057783;28;20078;-83
2023/07/25 00:39:16;;;;;;;5.57;3.55;;;15.90;97.00;;;;;;5040833;28;20071;-82
2023/07/25 00:41:42;;;;;;;4.05;3.65;;;15.90;97.00;;;;;;5057643;28;20033;-83
2023/07/25 00:44:08;;;;;;;4.07;3.78;;;15.90;97.00;;;;;;5057763;28;20050;-83
2023/07/25 00:46:34;;;;;;;4.22;3.63;;;15.80;97.00;;;;;;5023688;28;20082;-83
2023/07/25 00:49:00;;;;;;;5.47;3.60;;;15.80;97.10;;;;;;5057094;28;20028;-83
2023/07/25 00:51:28;;;;;;;5.57;4.15;;;15.80;97.10;;;;;;5057044;28;20383;-82
2023/07/25 00:53:54;;;;;;;4.60;4.20;;;15.80;97.10;;;;;;5075018;28;20096;-83
2023/07/25 00:56:21;;;;;;;4.68;3.45;;;15.70;97.10;;;;;;5074642;28;20024;-83
2023/07/25 00:58:47;;;;;;;7.97;4.25;;;15.70;97.10;;;;;;5074491;28;20472;-83
2023/07/25 01:01:12;;;;;;;6.22;4.30;;;15.70;97.10;;;;;;5074622;28;20099;-83
2023/07/25 01:03:39;;;;;;;3.92;3.60;;;15.70;97.10;;;;;;5074688;28;20067;-83
2023/07/25 01:06:09;;;;;;;5.80;4.20;;;15.60;97.10;;;;;;5057270;28;20483;-83
2023/07/25 01:08:47;;;;;;;4.78;4.03;;;15.70;97.10;;;;;;5056570;28;20491;-83
2023/07/25 01:11:13;;;;;;;5.05;4.15;;;15.60;97.10;;;;;;5074742;28;20109;-83
2023/07/25 01:13:38;;;;;;;4.95;4.43;;;15.60;97.20;;;;;;5039511;28;20056;-83
2023/07/25 01:16:04;;;;;;;5.15;3.55;;;15.50;97.20;;;;;;5074453;28;20041;-83
2023/07/25 01:18:31;;;;;;;4.50;4.10;;;15.50;97.20;;;;;;5039986;28;20041;-82
2023/07/25 01:20:56;;;;;;;4.18;3.80;;;15.50;97.20;;;;;;5040016;28;20494;-83
2023/07/25 01:23:24;;;;;;;4.80;3.95;;;15.50;97.30;;;;;;5056055;28;20024;-83
2023/07/25 01:25:49;;;;;;;6.03;4.40;;;15.40;97.30;;;;;;5056214;28;20104;-83
2023/07/25 01:28:15;;;;;;;5.28;4.30;;;15.40;97.30;;;;;;5056356;28;20056;-82
2023/07/25 01:30:40;;;;;;;6.05;4.22;;;15.40;97.30;;;;;;5023325;28;20054;-82
2023/07/25 01:33:06;;;;;;;6.10;4.75;;;15.40;97.30;;;;;;5039864;28;20388;-83
2023/07/25 01:35:32;;;;;;;4.28;3.88;;;15.40;97.30;;;;;;5040063;28;20038;-82
2023/07/25 01:37:57;;;;;;;5.80;4.28;;;15.30;97.30;;;;;;5056374;28;20071;-82
2023/07/25 01:40:23;;;;;;;5.13;4.50;;;15.40;97.40;;;;;;5039658;28;20033;-82
2023/07/25 01:42:48;;;;;;;5.43;4.90;;;15.30;97.40;;;;;;5056492;28;20353;-82
2023/07/25 01:45:14;;;;;;;5.28;4.78;;;15.30;97.40;;;;;;5055606;28;20430;-82
2023/07/25 01:47:39;;;;;;;5.38;4.80;;;15.30;97.40;;;;;;5039659;28;20024;-82
2023/07/25 01:50:05;;;;;;;7.35;4.82;;;15.30;97.40;;;;;;5023780;28;20028;-82
2023/07/25 01:52:32;;;;;;;5.95;5.10;;;15.20;97.40;;;;;;5074299;28;20025;-82
2023/07/25 01:54:57;;;;;;;5.93;5.35;;;15.30;97.50;;;;;;5055976;28;20040;-82
2023/07/25 01:57:26;;;;;;;6.60;4.53;;;15.20;97.50;;;;;;5023143;28;20025;-83
2023/07/25 01:59:52;;;;;;;6.40;5.40;;;15.20;97.50;;;;;;5024021;28;20075;-83
2023/07/25 02:02:17;;;;;;;6.80;5.28;;;15.20;97.50;;;;;;5040851;28;20472;-83
2023/07/25 02:04:43;;;;;;;5.32;4.85;;;15.20;97.50;;;;;;5094469;28;20024;-82
2023/07/25 02:07:09;;;;;;;5.70;5.18;;;15.10;97.50;;;;;;5080642;28;20031;-82
2023/07/25 02:09:35;;;;;;;6.40;4.55;;;15.10;97.50;;;;;;5047531;28;20059;-83
2023/07/25 02:12:01;;;;;;;5.25;4.82;;;15.00;97.50;;;;;;5080409;28;20013;-82
2023/07/25 02:14:26;;;;;;;7.07;4.97;;;15.10;97.60;;;;;;5049788;28;20025;-82
2023/07/25 02:16:53;;;;;;;5.88;5.38;;;15.10;97.60;;;;;;5023538;28;20449;-82
2023/07/25 02:19:18;;;;;;;6.68;5.43;;;15.10;97.60;;;;;;5039741;28;20135;-82
2023/07/25 02:21:44;;;;;;;6.45;5.32;;;15.00;97.60;;;;;;5039504;28;20145;-83
2023/07/25 02:24:09;;;;;;;8.18;5.72;;;15.00;97.60;;;;;;5039090;28;20033;-83
2023/07/25 02:26:35;;;;;;;7.40;5.80;;;15.00;97.60;;;;;;5055434;28;20116;-83
2023/07/25 02:29:01;;;;;;;6.05;5.18;;;15.00;97.60;;;;;;5038777;28;20066;-82
2023/07/25 02:31:26;;;;;;;6.32;5.57;;;14.90;97.60;;;;;;5038683;28;20058;-83
2023/07/25 02:33:52;;;;;;;5.85;4.95;;;14.90;97.70;;;;;;5021049;28;20024;-83
2023/07/25 02:36:17;;;;;;;6.63;6.03;;;14.90;97.70;;;;;;5055441;28;20032;-82
2023/07/25 02:38:43;;;;;;;7.55;5.82;;;14.90;97.70;;;;;;5055151;28;20041;-83
2023/07/25 02:41:09;;;;;;;6.38;5.80;;;14.80;97.70;;;;;;5039086;28;20043;-82
2023/07/25 02:43:34;;;;;;;5.43;4.93;;;14.80;97.80;;;;;;5038516;28;20345;-82
2023/07/25 02:46:00;;;;;;;6.80;5.60;;;14.90;97.80;;;;;;5055359;28;20020;-83
2023/07/25 02:48:26;;;;;;;7.72;5.50;;;14.90;97.80;;;;;;5022332;28;20029;-83
2023/07/25 02:50:51;;;;;;;7.28;5.78;;;14.90;97.80;;;;;;5073250;28;20031;-83
2023/07/25 02:53:17;;;;;;;11.02;5.57;;;14.90;98.10;;;;;;5038954;28;20434;-82
2023/07/25 02:55:43;;;;;;;6.38;5.35;;;14.80;97.80;;;;;;5055203;28;20051;-82
2023/07/25 02:58:09;;;;;;;6.80;5.55;;;14.90;97.80;;;;;;5042131;28;20029;-82
2023/07/25 03:00:34;;;;;;;8.25;5.63;;;14.80;97.80;;;;;;5026164;28;20051;-83
2023/07/25 03:03:00;;;;;;;7.15;5.85;;;14.80;97.80;;;;;;5077266;28;20029;-82
2023/07/25 03:05:27;;;;;;;7.80;5.70;;;14.80;97.80;;;;;;5042820;28;20028;-82
2023/07/25 03:07:53;;;;;;;6.75;6.13;;;14.80;97.90;;;;;;5076986;28;20064;-83
2023/07/25 03:10:19;;;;;;;6.78;6.18;;;14.80;97.90;;;;;;5059182;28;20106;-83
2023/07/25 03:12:44;;;;;;;8.00;6.00;;;14.80;97.90;;;;;;5025446;28;20048;-83
2023/07/25 03:15:10;;;;;;;6.70;6.10;;;14.80;97.80;;;;;;5042308;28;20021;-83
2023/07/25 03:17:36;;;;;;;9.45;6.50;;;14.70;97.80;;;;;;5058912;28;20037;-83
2023/07/25 03:20:02;;;;;;;6.35;5.38;;;14.70;97.80;;;;;;5059305;28;20032;-83
2023/07/25 03:22:27;;;;;;;5.95;5.45;;;14.70;97.90;;;;;;5025671;28;20110;-82
2023/07/25 03:24:53;;;;;;;6.32;5.72;;;14.70;98.20;;;;;;5042337;28;20036;-83
2023/07/25 03:27:19;;;;;;;6.75;5.88;;;14.70;97.90;;;;;;5042288;28;20028;-83
2023/07/25 03:29:44;;;;;;;6.90;6.03;;;14.70;97.90;;;;;;5058828;28;20024;-82
2023/07/25 03:32:10;;;;;;;7.45;5.93;;;14.60;97.90;;;;;;5025735;28;20035;-83
2023/07/25 03:34:36;;;;;;;7.20;5.78;;;14.60;97.90;;;;;;5058702;28;20430;-82
2023/07/25 03:37:02;;;;;;;7.95;6.53;;;14.60;97.90;;;;;;5042372;28;20081;-83
2023/07/25 03:39:29;;;;;;;5.88;5.35;;;14.60;97.90;;;;;;5042244;28;20044;-83
2023/07/25 03:41:55;;;;;;;6.68;5.78;;;14.60;98.20;;;;;;5058952;28;20033;-83
2023/07/25 03:44:23;;;;;;;7.53;5.68;;;14.50;98.00;;;;;;5026215;28;20610;-83
2023/07/25 03:46:48;;;;;;;7.05;6.25;;;14.60;98.00;;;;;;5056276;28;20018;-82
2023/07/25 03:49:15;;;;;;;7.80;6.13;;;14.50;98.00;;;;;;5066664;28;20044;-82
2023/07/25 03:51:40;;;;;;;6.78;6.18;;;14.50;98.10;;;;;;5100509;28;20032;-82
2023/07/25 03:54:06;;;;;;;6.57;5.63;;;14.50;98.10;;;;;;5100362;28;20042;-83
2023/07/25 03:56:33;;;;;;;7.07;6.38;;;14.50;98.10;;;;;;5079402;28;20052;-83
2023/07/25 03:58:59;;;;;;;8.15;5.85;;;14.50;98.10;;;;;;5043161;28;20460;-83
2023/07/25 04:01:25;;;;;;;6.35;5.22;;;14.50;98.20;;;;;;5042404;28;20028;-82
2023/07/25 04:03:51;;;;;;;5.68;5.20;;;14.50;98.20;;;;;;5041419;28;20060;-83
2023/07/25 04:06:18;;;;;;;6.80;5.80;;;14.50;98.20;;;;;;5041746;28;20029;-83
2023/07/25 04:08:44;;;;;;;6.55;5.95;;;14.50;98.20;;;;;;5056862;28;20039;-83
2023/07/25 04:11:09;;;;;;;5.72;5.22;;;14.50;98.20;;;;;;5076305;28;20029;-83
2023/07/25 04:13:35;;;;;;;6.82;5.97;;;14.50;98.30;;;;;;5057680;28;20044;-82
2023/07/25 04:16:01;;;;;;;7.53;6.57;;;14.50;98.30;;;;;;5058127;28;20498;-83
2023/07/25 04:18:26;;;;;;;7.38;6.43;;;14.50;98.40;;;;;;5024665;28;20488;-82
2023/07/25 04:20:52;;;;;;;6.75;6.07;;;14.50;98.40;;;;;;5040840;28;20024;-82
2023/07/25 04:23:18;;;;;;;6.57;5.82;;;14.50;98.50;;;;;;5041299;28;20021;-82
2023/07/25 04:25:43;;;;;;;6.57;5.97;;;14.50;98.50;;;;;;5041074;28;20028;-82
2023/07/25 04:28:09;;;;;;;6.53;5.63;;;14.60;98.50;;;;;;5041326;28;20392;-82
2023/07/25 04:30:35;;;;;;;6.85;6.15;;;14.50;98.50;;;;;;5075640;28;20029;-82
2023/07/25 04:33:01;;;;;;;6.82;6.00;;;14.60;98.50;;;;;;5075427;28;20618;-82
2023/07/25 04:35:26;;;;;;;6.68;5.90;;;14.50;98.50;;;;;;5057013;28;20372;-82
2023/07/25 04:37:52;;;;;;;12.23;6.45;;;14.50;98.50;;;;;;5023985;28;20035;-82
2023/07/25 04:40:17;;;;;;;7.45;6.07;;;14.60;98.50;;;;;;5040702;28;20025;-81
2023/07/25 04:42:43;;;;;;;6.30;5.70;;;14.60;98.50;;;;;;5040363;28;20052;-82
2023/07/25 04:45:09;;;;;;;7.60;5.80;;;14.50;98.50;;;;;;5024040;28;20082;-81
2023/07/25 04:47:35;;;;;;;8.00;6.15;;;14.60;98.50;;;;;;5040567;28;20472;-82
2023/07/25 04:50:01;;;;;;;11.13;6.35;;;14.60;98.60;;;;;;5056990;28;20035;-82
2023/07/25 04:52:27;;;;;;;7.70;6.07;;;14.60;98.60;;;;;;5057073;28;20059;-81
2023/07/25 04:54:57;;;;;;;9.90;6.57;;;14.60;98.60;;;;;;5040599;28;20032;-82
2023/07/25 04:57:25;;;;;;;6.77;6.17;;;14.60;98.60;;;;;;5074972;28;20027;-81
2023/07/25 04:59:52;;;;;;;7.07;6.03;;;14.70;98.70;;;;;;5056689;28;20287;-82
2023/07/25 05:02:21;;;;;;;7.38;6.45;;;14.70;98.70;;;;;;5057024;28;20039;-82
2023/07/25 05:04:47;;;;;;;6.85;6.18;;;14.70;98.70;;;;;;5074824;28;20027;-82
2023/07/25 05:07:14;;;;;;;7.05;6.38;;;14.70;98.70;;;;;;5023344;28;20462;-82
2023/07/25 05:09:40;;;;;;;6.88;5.80;;;14.70;98.70;;;;;;5040205;28;20438;-82
2023/07/25 05:12:10;;;;;;;6.45;5.68;;;14.80;98.80;;;;;;5056450;28;20048;-82
2023/07/25 05:14:36;;;;;;;6.07;5.47;;;14.80;98.80;;;;;;5056972;28;20025;-82
2023/07/25 05:17:02;;;;;;;6.25;5.53;;;14.80;98.80;;;;;;5023604;28;20032;-82
2023/07/25 05:19:27;;;;;;;6.45;5.85;;;14.80;98.80;;;;;;5039642;28;20039;-83
2023/07/25 05:21:53;;;;;;;6.30;5.70;;;14.90;98.90;;;;;;5056864;28;20039;-82
2023/07/25 05:24:19;;;;;;;7.65;5.70;;;15.00;98.90;;;;;;5040223;28;20020;-82
2023/07/25 05:26:44;;;;;;;6.68;5.97;;;15.00;98.90;;;;;;5075657;28;20356;-83
2023/07/25 05:29:10;;;;;;;6.75;5.88;;;15.10;99.00;;;;;;5053437;28;20024;-82
2023/07/25 05:31:36;;;;;;;7.35;6.50;;;15.10;99.00;;;;;;5080695;28;20047;-82
2023/07/25 05:34:01;;;;;;;7.82;6.85;;;15.20;99.00;;;;;;5064953;28;20009;-83
2023/07/25 05:36:27;;;;;;;6.75;6.15;;;15.20;99.00;;;;;;5098168;28;20024;-82
2023/07/25 05:38:53;;;;;;;6.80;5.88;;;15.30;99.10;;;;;;5094891;28;20368;-82
2023/07/25 05:41:18;;;;;;;8.98;5.82;;;15.30;99.10;;;;;;5040402;28;20458;-82
2023/07/25 05:43:44;;;;;;;7.55;6.68;;;15.30;99.00;;;;;;5056810;28;20071;-82
2023/07/25 05:46:10;;;;;;;7.15;6.38;;;15.40;99.00;;;;;;5056280;28;20030;-82
2023/07/25 05:48:35;;;;;;;5.97;5.25;;;15.50;99.00;;;;;;5056400;28;20036;-82
2023/07/25 05:51:01;;;;;;;9.90;5.70;;;15.50;98.90;;;;;;5056195;28;20016;-82
2023/07/25 05:53:26;;;;;;;8.48;6.13;;;15.60;98.90;;;;;;5039566;28;20055;-82
2023/07/25 05:55:52;;;;;;;7.78;5.72;;;15.60;98.90;;;;;;5039271;28;20427;-82
2023/07/25 05:58:19;;;;;;;5.90;5.20;;;15.70;99.00;;;;;;5022854;28;20494;-81
2023/07/25 06:00:47;;;;;;;7.20;5.25;;;15.80;98.90;;;;;;5055955;28;20013;-82
2023/07/25 06:03:14;;;;;;;8.85;5.32;;;15.80;98.80;;;;;;5055614;28;20025;-82
2023/07/25 06:05:40;;;;;;;7.28;4.75;;;15.80;98.70;;;;;;5055943;28;20478;-82
2023/07/25 06:08:06;;;;;;;6.28;4.90;;;15.90;98.70;;;;;;5039057;28;20170;-82
2023/07/25 06:10:32;;;;;;;6.72;5.15;;;15.90;98.70;;;;;;5055554;28;20024;-82
2023/07/25 06:12:58;;;;;;;6.50;5.47;;;15.90;98.50;;;;;;5055342;28;20058;-82
2023/07/25 06:15:24;;;;;;;6.38;4.43;;;15.90;98.40;;;;;;5055744;28;20480;-82
2023/07/25 06:17:50;;;;;;;9.85;5.43;;;16.00;98.50;;;;;;5073357;28;20086;-82
2023/07/25 06:20:16;;;;;;;7.00;5.07;;;16.00;98.40;;;;;;5055249;28;20033;-82
2023/07/25 06:22:45;;;;;;;7.72;4.85;;;16.00;98.30;;;;;;5055524;28;20033;-82
2023/07/25 06:25:14;;;;;;;7.68;5.10;;;16.10;98.30;;;;;;5039086;28;20051;-82
2023/07/25 06:27:40;;;;;;;8.52;5.35;;;16.10;98.30;;;;;;5055463;28;20112;-82
2023/07/25 06:30:06;;;;;;;9.68;5.38;;;16.20;98.20;;;;;;5038936;28;20032;-82
2023/07/25 06:32:32;;;;;;;6.53;5.13;;;16.10;98.00;;;;;;5055188;28;20016;-82
2023/07/25 06:34:58;;;;;;;8.05;5.38;;;16.10;98.00;;;;;;5055321;28;20035;-82
2023/07/25 06:37:23;;;;;;;6.18;4.85;;;16.10;98.00;;;;;;5038741;28;20233;-82
2023/07/25 06:39:49;;;;;;;5.32;4.82;;;16.10;98.00;;;;;;5055341;28;20044;-82
2023/07/25 06:42:15;;;;;;;6.50;4.78;;;16.20;98.10;;;;;;5038261;28;20036;-82
2023/07/25 06:44:40;;;;;;;9.23;5.78;;;16.20;98.10;;;;;;5055268;28;20028;-82
2023/07/25 06:47:06;;;;;;;5.63;4.63;;;16.30;98.10;;;;;;5038773;28;20377;-82
2023/07/25 06:49:32;;;;;;;5.88;4.82;;;16.30;98.10;;;;;;5055464;28;20108;-82
2023/07/25 06:52:00;;;;;;;7.10;4.82;;;16.30;98.10;;;;;;5038658;28;20125;-83
2023/07/25 06:54:26;;;;;;;6.53;5.38;;;16.30;98.10;;;;;;5039140;28;20029;-82
2023/07/25 06:56:51;;;;;;;6.82;4.88;;;16.30;98.10;;;;;;5073147;28;20159;-82
2023/07/25 06:59:17;;;;;;;7.88;5.68;;;16.40;98.10;;;;;;5055480;28;20036;-82
2023/07/25 07:01:43;;;;;;;6.20;4.82;;;16.40;98.00;;;;;;5055671;28;20530;-82
2023/07/25 07:04:08;;;;;;;8.48;5.38;;;16.50;97.90;;;;;;5073363;28;20056;-82
2023/07/25 07:06:34;;;;;;;6.40;4.95;;;16.50;97.90;;;;;;5073520;28;20041;-82
2023/07/25 07:09:00;;;;;;;6.85;5.97;;;16.50;97.80;;;;;;5073354;28;20395;-82
2023/07/25 07:11:25;;;;;;;7.03;4.72;;;16.60;97.80;;;;;;5039942;28;20531;-82
2023/07/25 07:13:51;;;;;;;9.32;5.15;;;16.60;97.70;;;;;;5047639;28;20033;-82
2023/07/25 07:16:17;;;;;;;6.72;5.55;;;16.60;97.60;;;;;;5062973;28;20040;-82
2023/07/25 07:18:43;;;;;;;8.65;5.82;;;16.60;97.40;;;;;;5080414;28;20080;-81
2023/07/25 07:21:09;;;;;;;7.53;5.63;;;16.60;97.20;;;;;;5080278;28;20468;-82
2023/07/25 07:23:34;;;;;;;6.35;5.72;;;16.60;97.30;;;;;;5079878;28;20092;-82
2023/07/25 07:26:00;;;;;;;7.15;5.15;;;16.70;97.20;;;;;;5062971;28;20063;-82
2023/07/25 07:28:26;;;;;;;7.60;5.38;;;16.70;97.10;;;;;;5055513;28;20044;-82
2023/07/25 07:30:52;;;;;;;5.78;5.28;;;16.80;97.40;;;;;;5038685;28;20035;-82
2023/07/25 07:33:21;;;;;;;6.57;5.70;;;16.90;97.10;;;;;;5072815;28;20073;-82
2023/07/25 07:35:47;;;;;;;6.18;5.63;;;17.00;96.90;;;;;;5072774;28;20020;-82
2023/07/25 07:38:13;;;;;;;5.90;5.40;;;17.10;96.70;;;;;;5022001;28;20123;-82
2023/07/25 07:40:39;;;;;;;5.97;5.45;;;17.10;96.50;;;;;;5054958;28;20057;-82
2023/07/25 07:43:04;;;;;;;6.07;5.40;;;17.20;96.50;;;;;;5054794;28;20024;-82
2023/07/25 07:45:31;;;;;;;5.45;5.05;;;17.30;96.40;;;;;;5076031;28;20031;-82
2023/07/25 07:47:56;;;;;;;7.80;5.70;;;17.30;96.20;;;;;;5058373;28;20033;-82
2023/07/25 07:50:22;;;;;;;6.65;5.90;;;17.40;96.00;;;;;;5041425;28;20035;-82
2023/07/25 07:52:48;;;;;;;6.30;5.78;;;17.40;96.20;;;;;;5075780;28;20028;-82
2023/07/25 07:55:15;;;;;;;6.38;5.50;;;17.50;95.60;;;;;;5075725;28;20025;-82
2023/07/25 07:57:43;;;;;;;7.10;5.97;;;17.50;95.50;;;;;;5075549;28;20032;-82
2023/07/25 08:00:10;;;;;;;6.07;5.32;;;17.60;95.50;;;;;;5041761;28;20029;-82
2023/07/25 08:02:36;;;;;;;5.82;4.95;;;17.60;95.30;;;;;;5041582;28;20037;-82
2023/07/25 08:05:01;;;;;;;6.25;5.60;;;17.70;95.10;;;;;;5076057;28;20027;-82
2023/07/25 08:07:27;;;;;;;6.05;5.10;;;17.70;95.10;;;;;;5041482;28;20029;-82
2023/07/25 08:09:56;;;;;;;5.57;5.07;;;17.70;94.90;;;;;;5041022;28;20082;-82
2023/07/25 08:12:22;;;;;;;7.65;4.95;;;17.80;94.60;;;;;;5075461;28;20144;-82
2023/07/25 08:14:48;;;;;;;3.95;3.58;;;17.80;94.50;;;;;;5075847;28;20024;-83
2023/07/25 08:17:15;;;;;;;6.82;4.47;;;17.80;94.80;;;;;;5057358;28;20029;-82
2023/07/25 08:19:41;;;;;;;5.18;4.32;;;17.80;94.40;;;;;;5040459;28;20025;-82
2023/07/25 08:22:09;;;;;;;5.05;4.20;;;17.80;94.20;;;;;;5074171;28;20024;-83
2023/07/25 08:24:35;;;;;;;6.40;4.25;;;17.90;94.00;;;;;;5074237;28;20119;-83
2023/07/25 08:27:00;;;;;;;4.60;3.80;;;17.90;93.80;;;;;;5074200;28;20500;-83
2023/07/25 08:29:26;;;;;;;4.22;3.92;;;17.90;93.60;;;;;;5056509;28;20488;-82
2023/07/25 08:31:52;;;;;;;4.03;3.47;;;17.90;93.40;;;;;;5073886;28;20034;-82
2023/07/25 08:34:18;;;;;;;4.60;4.20;;;18.00;93.30;;;;;;5056031;28;20115;-83
2023/07/25 08:36:44;;;;;;;4.72;3.83;;;18.00;93.10;;;;;;5055864;28;20089;-84
2023/07/25 08:39:10;;;;;;;4.65;3.90;;;18.10;93.20;;;;;;5039393;28;20040;-81
2023/07/25 08:41:45;;;;;;;4.70;4.25;;;18.20;93.20;;;;;;5074109;28;20102;-81
2023/07/25 08:44:12;;;;;;;5.20;4.47;;;18.30;93.40;;;;;;5073709;28;20017;-82
2023/07/25 08:46:44;;;;;;;5.57;4.57;;;18.40;93.40;;;;;;5055762;28;20102;-82
2023/07/25 08:49:15;;;;;;;5.82;4.82;;;18.40;93.10;;;;;;5056570;28;20027;-82
2023/07/25 08:51:41;;;;;;;;;;;18.50;92.70;;;;;;5075895;28;20024;-82
2023/07/25 08:54:15;;;;;;;4.53;3.53;;;18.50;92.80;;;;;;5074568;28;19958;-82
2023/07/25 08:56:42;;;;;;;4.15;3.75;;;18.60;93.10;;;;;;5057722;28;20362;-82
2023/07/25 08:59:09;;;;;;;5.03;4.50;;;18.70;93.20;;;;;;5057687;28;20043;-82
2023/07/25 09:01:35;;;;;;;5.47;4.97;;;18.70;92.80;;;;;;5057951;28;20025;-82
2023/07/25 09:04:01;;;;;;;5.13;4.68;;;18.70;92.30;;;;;;5078639;28;20017;-81
2023/07/25 09:06:28;;;;;;;4.85;4.43;;;18.70;92.00;;;;;;5081698;28;20013;-83
2023/07/25 09:08:54;;;;;;;5.28;4.88;;;18.70;92.00;;;;;;5065015;28;20025;-82
2023/07/25 09:11:23;;;;;;;4.63;4.28;;;18.60;92.20;;;;;;5081925;28;20012;-82
2023/07/25 09:13:49;;;;;;;5.75;4.57;;;18.70;92.60;;;;;;5073975;28;20079;-81
2023/07/25 09:16:18;;;;;;;8.02;4.82;;;18.70;92.80;;;;;;5057560;28;20024;-82
2023/07/25 09:18:43;;;;;;;7.05;5.00;;;18.70;92.30;;;;;;5074828;28;20444;-82
2023/07/25 09:21:09;;;;;;;6.38;5.07;;;18.60;92.00;;;;;;5074852;28;20031;-82
2023/07/25 09:23:35;;;;;;;9.68;6.00;;;18.60;92.00;;;;;;5040060;28;20384;-82
2023/07/25 09:26:10;;;;;;;6.80;5.80;;;18.50;91.60;;;;;;5056696;28;20064;-82
2023/07/25 09:28:46;;;;;;;5.13;4.72;;;18.50;91.50;;;;;;5056019;28;20032;-82
2023/07/25 09:31:12;;;;;;;5.72;5.30;;;18.40;91.40;;;;;;5056413;28;20033;-81
2023/07/25 09:33:38;;;;;;;5.55;5.15;;;18.40;91.20;;;;;;5040165;28;20082;-82
2023/07/25 09:36:06;;;;;;;5.60;3.90;;;18.40;90.80;;;;;;5039892;28;20384;-82
2023/07/25 09:38:33;;;;;;;5.15;4.75;;;18.50;91.00;;;;;;5056207;28;20044;-82
2023/07/25 09:41:01;;;;;;;4.97;4.50;;;18.50;90.70;;;;;;5074072;28;20032;-82
2023/07/25 09:43:27;;;;;;;4.82;4.40;;;18.60;90.60;;;;;;5039861;28;20078;-81
2023/07/25 09:45:55;;;;;;;4.50;4.20;;;18.60;90.30;;;;;;5073880;28;20028;-82
2023/07/25 09:48:21;;;;;;;4.72;4.28;;;18.70;90.30;;;;;;5056012;28;20051;-82
2023/07/25 09:50:47;;;;;;;4.63;3.83;;;18.70;90.30;;;;;;5074142;28;20083;-82
2023/07/25 09:53:16;;;;;;;4.72;4.00;;;18.70;90.30;;;;;;5055922;28;20189;-82
2023/07/25 09:55:43;;;;;;;4.45;4.10;;;18.80;90.50;;;;;;5056079;28;20111;-81
2023/07/25 09:58:09;;;;;;;4.00;3.60;;;18.90;90.50;;;;;;5073664;28;20036;-82
2023/07/25 10:00:34;;;;;;;4.25;3.95;;;18.90;90.20;;;;;;5055707;28;20029;-82
2023/07/25 10:03:00;;;;;;;4.38;3.97;;;18.90;89.30;;;;;;5055711;28;20090;-82
2023/07/25 10:05:28;;;;;;;4.63;4.18;;;18.80;89.60;;;;;;5073211;28;20027;-82
2023/07/25 10:07:56;;;;;;;4.75;4.40;;;18.80;89.80;;;;;;5073271;28;20241;-82
2023/07/25 10:10:25;;;;;;;4.40;3.40;;;18.90;90.20;;;;;;5073520;28;20021;-82
2023/07/25 10:12:51;;;;;;;3.85;3.65;;;18.90;90.20;;;;;;5055163;28;20068;-81
2023/07/25 10:15:17;;;;;;;3.60;3.40;;;19.00;90.50;;;;;;5039433;28;20107;-82
2023/07/25 10:17:44;;;;;;;4.50;4.10;;;19.10;90.60;;;;;;5038786;28;20040;-82
2023/07/25 10:20:25;;;;;;;4.43;4.05;;;19.10;88.60;;;;;;5039337;28;20090;-82
2023/07/25 10:22:50;;;;;;;;;;;19.10;87.70;;;;;;5056046;28;20033;-82
2023/07/25 10:25:25;;;;;;;4.22;3.83;;;19.10;87.50;;;;;;5055705;28;19918;-82
2023/07/25 10:27:54;;;;;;;4.68;4.30;;;19.10;87.20;;;;;;5073526;28;20048;-82
2023/07/25 10:30:25;;;;;;;4.78;4.38;;;19.20;86.30;;;;;;5073393;28;20071;-82
2023/07/25 10:32:58;;;;;;;4.18;3.78;;;19.30;86.90;;;;;;5073802;28;20016;-82
2023/07/25 10:35:55;;;;;;;4.35;4.05;;;19.30;86.00;;;;;;5073309;28;20016;-82
2023/07/25 10:38:31;;;;;;;4.10;3.90;;;19.30;86.20;;;;;;5072117;28;20029;-82
2023/07/25 10:40:59;;;;;;;4.20;3.55;;;19.40;86.60;;;;;;5055164;28;20017;-83
2023/07/25 10:44:06;;;;;;;3.65;3.45;;;19.50;86.90;;;;;;5073657;28;20025;-82
2023/07/25 10:46:33;;;;;;;4.15;3.83;;;19.50;87.50;;;;;;5073786;28;20102;-82
2023/07/25 10:49:01;;;;;;;4.18;3.88;;;19.60;87.10;;;;;;5075059;28;20115;-82
2023/07/25 10:51:50;;;;;;;4.45;4.13;;;19.70;85.90;;;;;;5075477;28;20029;-83
2023/07/25 10:54:17;;;;;;;5.00;4.55;;;19.70;84.90;;;;;;5092448;28;20020;-82
2023/07/25 10:57:09;;;;;;;5.90;5.45;;;19.70;84.10;;;;;;5079969;28;20033;-83
2023/07/25 11:00:04;;;;;;;4.90;4.60;;;19.70;83.70;;;;;;5079250;28;20036;-84
2023/07/25 11:02:31;;;;;;;4.63;4.15;;;19.70;84.20;;;;;;5079166;28;20032;-83
2023/07/25 11:05:12;;;;;;;5.25;4.90;;;19.80;84.40;;;;;;5079791;28;20070;-84
2023/07/25 11:07:47;;;;;;;5.20;4.75;;;19.90;83.80;;;;;;5079433;28;20048;-82
2023/07/25 11:10:34;;;;;;;4.40;4.10;;;19.90;83.40;;;;;;5072153;28;20028;-83
2023/07/25 11:13:00;;;;;;;5.38;4.97;;;19.90;84.10;;;;;;5054617;28;20044;-83
2023/07/25 11:15:27;;;;;;;6.30;5.90;;;20.10;82.60;;;;;;5072724;28;20056;-83
2023/07/25 11:17:52;;;;;;;5.50;5.20;;;20.10;80.80;;;;;;5056222;28;20041;-83
2023/07/25 11:20:23;;;;;;;4.47;4.18;;;20.10;81.60;;;;;;5042061;28;20024;-83
2023/07/25 11:22:50;;;;;;;;;;;20.10;82.30;;;;;;5059753;28;20112;-83
2023/07/25 11:25:16;;;;;;;4.88;4.50;;;20.10;82.60;;;;;;5058761;28;19911;-83
2023/07/25 11:27:43;;;;;;;5.10;4.75;;;20.10;82.90;;;;;;5058409;28;20447;-84
2023/07/25 11:30:17;;;;;;;8.57;7.97;;;20.20;82.30;;;;;;5076069;28;20102;-83
2023/07/25 11:32:47;;;;;;;10.40;9.90;;;20.20;77.80;;;;;;5076116;28;20025;-84
2023/07/25 11:35:15;;;;;;;9.05;8.43;;;20.20;77.10;;;;;;5076320;28;20020;-84
2023/07/25 11:37:42;;;;;;;8.32;7.72;;;20.10;77.80;;;;;;5076307;28;20037;-83
2023/07/25 11:40:19;;;;;;;8.75;8.20;;;20.10;79.00;;;;;;5058692;28;20051;-83
2023/07/25 11:42:49;;;;;;;8.10;7.50;;;20.20;78.70;;;;;;5058055;28;20364;-83
2023/07/25 11:45:16;;;;;;;4.38;4.18;;;20.20;80.10;;;;;;5058254;28;20028;-83
2023/07/25 11:47:44;;;;;;;5.35;5.05;;;20.30;80.80;;;;;;5058034;28;20029;-83
2023/07/25 11:50:11;;;;;;;5.55;5.13;;;20.30;80.70;;;;;;5075966;28;20040;-83
2023/07/25 11:52:41;;;;;;;6.95;6.25;;;20.40;79.40;;;;;;5075323;28;20468;-83
2023/07/25 11:55:08;;;;;;;7.70;7.22;;;20.50;77.10;;;;;;5076654;28;20035;-82
2023/07/25 11:57:36;;;;;;;9.68;9.23;;;20.50;76.20;;;;;;5058555;28;20021;-82
2023/07/25 12:00:04;;;;;;;8.77;8.27;;;20.40;75.30;;;;;;5057731;28;20123;-82
2023/07/25 12:02:39;;;;;;;10.73;10.13;;;20.40;74.80;;;;;;5057564;28;20054;-82
2023/07/25 12:05:07;;;;;;;11.10;10.52;;;20.40;73.40;;;;;;5057580;28;20075;-82
2023/07/25 12:07:52;;;;;;;8.43;7.90;;;20.40;72.90;;;;;;5075588;28;20017;-82
2023/07/25 12:10:46;;;;;;;8.68;8.27;;;20.40;74.20;;;;;;5040595;28;20033;-82
2023/07/25 12:13:11;;;;;;;9.02;8.52;;;20.40;74.90;;;;;;5053303;28;20044;-82
2023/07/25 12:15:45;;;;;;;7.50;7.10;;;20.40;76.00;;;;;;5075164;28;20039;-82
2023/07/25 12:18:31;;;;;;;9.93;9.43;;;20.50;75.70;;;;;;5074788;28;20068;-82
2023/07/25 12:21:01;;;;;;;7.95;7.47;;;20.50;74.80;;;;;;5074917;28;20364;-83
2023/07/25 12:23:37;;;;;;;9.17;8.63;;;20.50;75.50;;;;;;5056741;28;20396;-81
2023/07/25 12:26:04;;;;;;;8.57;8.10;;;20.60;75.20;;;;;;5041971;28;20031;-82
2023/07/25 12:28:59;;;;;;;6.47;6.18;;;20.70;74.70;;;;;;5041145;28;20098;-82
2023/07/25 12:31:24;;;;;;;7.95;7.47;;;20.80;75.60;;;;;;5053845;28;20068;-82
2023/07/25 12:33:50;;;;;;;7.78;7.28;;;20.80;74.10;;;;;;5024261;28;20063;-82
2023/07/25 12:36:18;;;;;;;7.30;6.85;;;20.80;74.40;;;;;;5057452;28;20120;-82
2023/07/25 12:38:44;;;;;;;7.60;7.00;;;20.70;74.70;;;;;;5041531;28;20033;-82
2023/07/25 12:41:10;;;;;;;6.50;6.18;;;20.70;74.50;;;;;;5058362;28;20035;-82
2023/07/25 12:43:36;;;;;;;6.63;6.22;;;20.70;75.30;;;;;;5076053;28;20029;-82
2023/07/25 12:46:02;;;;;;;5.93;5.57;;;20.70;75.40;;;;;;5058770;28;20025;-82
2023/07/25 12:48:28;;;;;;;5.85;5.53;;;20.80;75.70;;;;;;5096200;28;20072;-82